createdAt,value
2022-10-05T00:02:19.424Z,9.40
2022-10-05T00:07:26.040Z,9.36
2022-10-05T00:12:30.525Z,9.33
2022-10-05T00:17:34.636Z,9.30
2022-10-05T00:22:37.440Z,9.29
2022-10-05T00:27:40.208Z,9.24
2022-10-05T00:32:44.871Z,9.17
2022-10-05T00:37:52.265Z,9.13
2022-10-05T00:43:06.453Z,9.09
2022-10-05T00:48:19.691Z,9.06
2022-10-05T00:53:34.798Z,9.03
2022-10-05T00:58:52.962Z,8.94
2022-10-05T01:04:09.722Z,8.87
2022-10-05T01:09:19.399Z,8.83
2022-10-05T01:14:28.722Z,8.80
2022-10-05T01:20:02.358Z,8.69
2022-10-05T01:25:22.068Z,8.61
2022-10-05T01:30:26.244Z,8.51
2022-10-05T01:35:44.084Z,8.47
2022-10-05T01:40:55.501Z,8.46
2022-10-05T01:46:07.456Z,8.47
2022-10-05T01:51:19.395Z,8.47
2022-10-05T01:56:29.360Z,8.43
2022-10-05T02:01:39.910Z,8.37
2022-10-05T02:06:46.647Z,8.30
2022-10-05T02:11:55.959Z,8.27
2022-10-05T02:17:07.033Z,8.26
2022-10-05T02:22:19.018Z,8.25
2022-10-05T02:27:26.940Z,8.23
2022-10-05T02:32:37.611Z,8.14
2022-10-05T02:37:50.388Z,8.05
2022-10-05T02:43:01.391Z,8.03
2022-10-05T02:48:14.923Z,8.00
2022-10-05T02:53:28.958Z,7.93
2022-10-05T02:58:39.601Z,7.89
2022-10-05T03:03:47.947Z,7.86
2022-10-05T03:09:00.933Z,7.85
2022-10-05T03:14:14.071Z,7.83
2022-10-05T03:19:36.899Z,7.79
2022-10-05T03:24:56.898Z,7.73
2022-10-05T03:30:05.414Z,7.67
2022-10-05T03:35:15.205Z,7.63
2022-10-05T03:40:27.906Z,7.60
2022-10-05T03:45:35.852Z,7.56
2022-10-05T03:50:47.048Z,7.57
2022-10-05T03:55:55.333Z,7.58
2022-10-05T04:01:03.368Z,7.50
2022-10-05T04:06:13.514Z,7.39
2022-10-05T04:11:22.291Z,7.34
2022-10-05T04:16:28.784Z,7.27
2022-10-05T04:21:39.183Z,7.21
2022-10-05T04:26:47.205Z,7.17
2022-10-05T04:32:02.990Z,7.12
2022-10-05T04:37:14.275Z,7.06
2022-10-05T04:42:28.130Z,7.03
2022-10-05T04:48:03.818Z,7.02
2022-10-05T04:53:15.139Z,7.00
2022-10-05T04:58:30.376Z,7.01
2022-10-05T05:04:03.595Z,7.03
2022-10-05T05:09:23.942Z,6.98
2022-10-05T05:14:56.747Z,7.00
2022-10-05T05:20:09.850Z,6.99
2022-10-05T05:25:25.988Z,6.95
2022-10-05T05:30:37.999Z,6.93
2022-10-05T05:36:23.470Z,6.84
2022-10-05T05:41:38.220Z,6.84
2022-10-05T05:47:03.031Z,6.84
2022-10-05T05:52:15.514Z,6.78
2022-10-05T05:57:24.234Z,6.77
2022-10-05T06:02:32.735Z,6.79
2022-10-05T06:07:38.911Z,6.82
2022-10-05T06:12:46.946Z,6.87
2022-10-05T06:17:53.057Z,6.97
2022-10-05T06:23:00.525Z,7.07
2022-10-05T06:28:11.221Z,7.24
2022-10-05T06:33:23.898Z,7.34
2022-10-05T06:38:44.368Z,7.41
2022-10-05T06:43:58.354Z,7.52
2022-10-05T06:49:19.201Z,7.62
2022-10-05T06:54:42.607Z,7.72
2022-10-05T06:59:55.089Z,7.77
2022-10-05T07:05:35.655Z,7.85
2022-10-05T07:10:45.323Z,8.02
2022-10-05T07:15:59.970Z,8.22
2022-10-05T07:21:10.391Z,8.39
2022-10-05T07:26:19.409Z,8.53
2022-10-05T07:31:34.146Z,8.67
2022-10-05T07:37:00.138Z,8.87
2022-10-05T07:42:18.901Z,9.01
2022-10-05T07:47:32.684Z,9.18
2022-10-05T07:52:39.831Z,9.23
2022-10-05T07:57:50.334Z,9.38
2022-10-05T08:02:59.863Z,9.46
2022-10-05T08:08:13.311Z,9.62
2022-10-05T08:13:23.037Z,9.80
2022-10-05T08:18:43.418Z,9.86
2022-10-05T08:23:50.206Z,9.98
2022-10-05T08:29:01.850Z,10.15
2022-10-05T08:34:22.094Z,10.38
2022-10-05T08:39:28.113Z,10.74
2022-10-05T08:45:06.455Z,11.08
2022-10-05T08:50:24.446Z,11.38
2022-10-05T08:55:52.819Z,11.56
2022-10-05T09:01:02.768Z,11.78
2022-10-05T09:06:43.423Z,11.97
2022-10-05T09:12:04.631Z,12.10
2022-10-05T09:17:39.572Z,12.19
2022-10-05T09:23:00.112Z,12.44
2022-10-05T09:28:21.338Z,12.46
2022-10-05T09:34:00.554Z,12.71
2022-10-05T09:39:40.535Z,13.08
2022-10-05T09:45:27.518Z,13.43
2022-10-05T09:51:01.307Z,13.51
2022-10-05T09:56:44.847Z,13.71
2022-10-05T10:02:05.899Z,13.90
2022-10-05T10:07:42.671Z,13.93
2022-10-05T10:13:05.328Z,13.93
2022-10-05T10:18:28.866Z,14.09
2022-10-05T10:24:01.552Z,14.37
2022-10-05T10:29:45.971Z,14.51
2022-10-05T10:35:23.061Z,14.80
2022-10-05T10:40:34.908Z,14.96
2022-10-05T10:45:49.195Z,15.12
2022-10-05T10:51:19.692Z,15.44
2022-10-05T10:56:30.711Z,15.55
2022-10-05T11:01:36.566Z,15.68
2022-10-05T11:07:11.957Z,15.86
2022-10-05T11:12:34.662Z,15.87
2022-10-05T11:17:59.048Z,16.02
2022-10-05T11:23:38.726Z,16.21
2022-10-05T11:28:59.810Z,16.50
2022-10-05T11:34:34.079Z,16.75
2022-10-05T11:39:55.739Z,17.03
2022-10-05T11:45:21.777Z,17.26
2022-10-05T11:50:34.027Z,17.46
2022-10-05T11:55:43.634Z,17.66
2022-10-05T12:00:54.950Z,17.86
2022-10-05T12:06:23.745Z,18.09
2022-10-05T12:11:57.758Z,18.25
2022-10-05T12:17:04.576Z,18.36
2022-10-05T12:22:15.871Z,18.45
2022-10-05T12:27:24.013Z,18.59
2022-10-05T12:32:34.755Z,18.71
2022-10-05T12:37:47.703Z,18.84
2022-10-05T12:43:03.052Z,19.01
2022-10-05T12:48:22.460Z,19.18
2022-10-05T12:53:40.930Z,19.24
2022-10-05T12:58:52.426Z,19.40
2022-10-05T13:04:04.477Z,19.60
2022-10-05T13:09:11.840Z,19.81
2022-10-05T13:14:38.066Z,19.86
2022-10-05T13:19:45.172Z,19.91
2022-10-05T13:24:59.661Z,20.02
2022-10-05T13:30:13.208Z,20.16
2022-10-05T13:35:37.324Z,20.25
2022-10-05T13:40:47.137Z,20.42
2022-10-05T13:45:57.101Z,20.51
2022-10-05T13:51:07.514Z,20.58
2022-10-05T13:56:20.737Z,20.70
2022-10-05T14:01:41.664Z,20.88
2022-10-05T14:06:45.463Z,21.00
2022-10-05T14:11:51.421Z,21.06
2022-10-05T14:16:57.432Z,21.28
2022-10-05T14:22:02.258Z,21.41
2022-10-05T14:27:20.927Z,21.50
2022-10-05T14:32:27.061Z,21.58
2022-10-05T14:37:33.986Z,21.69
2022-10-05T14:42:47.317Z,21.72
2022-10-05T14:47:54.021Z,21.73
2022-10-05T14:53:16.605Z,21.73
2022-10-05T14:58:32.766Z,21.84
2022-10-05T15:03:48.286Z,21.88
2022-10-05T15:09:16.493Z,21.94
